createdAt,value
2023-02-04T00:01:23.507Z,4.46
2023-02-04T00:03:52.610Z,4.46
2023-02-04T00:06:20.441Z,4.54
2023-02-04T00:08:48.284Z,4.89
2023-02-04T00:11:16.518Z,4.75
2023-02-04T00:13:44.367Z,4.56
2023-02-04T00:16:12.521Z,4.72
2023-02-04T00:18:40.741Z,4.81
2023-02-04T00:21:08.580Z,4.53
2023-02-04T00:23:36.445Z,4.62
2023-02-04T00:26:04.785Z,4.98
2023-02-04T00:28:32.692Z,4.94
2023-02-04T00:31:00.643Z,4.82
2023-02-04T00:33:29.305Z,4.87
2023-02-04T00:35:57.203Z,4.58
2023-02-04T00:38:25.012Z,5.12
2023-02-04T00:40:53.259Z,5.21
2023-02-04T00:43:21.133Z,5.05
2023-02-04T00:45:49.277Z,5.01
2023-02-04T00:48:17.526Z,5.18
2023-02-04T00:50:45.452Z,5.03
2023-02-04T00:53:13.434Z,4.71
2023-02-04T00:55:41.806Z,5.16
2023-02-04T00:58:09.626Z,4.98
2023-02-04T01:00:37.502Z,5.20
2023-02-04T01:03:05.950Z,5.06
2023-02-04T01:05:33.937Z,4.99
2023-02-04T01:08:01.869Z,4.48
2023-02-04T01:10:30.297Z,4.81
2023-02-04T01:12:58.634Z,4.90
2023-02-04T01:15:28.019Z,4.87
2023-02-04T01:17:56.252Z,4.97
2023-02-04T01:20:24.121Z,4.78
2023-02-04T01:22:51.939Z,5.13
2023-02-04T01:25:20.356Z,5.12
2023-02-04T01:27:48.375Z,5.28
2023-02-04T01:30:16.905Z,5.24
2023-02-04T01:32:45.232Z,4.95
2023-02-04T01:35:14.523Z,5.05
2023-02-04T01:37:42.357Z,5.15
2023-02-04T01:40:11.672Z,5.36
2023-02-04T01:42:39.772Z,5.29
2023-02-04T01:45:09.622Z,5.47
2023-02-04T01:47:38.389Z,5.11
2023-02-04T01:50:07.426Z,5.16
2023-02-04T01:52:37.570Z,4.90
2023-02-04T01:55:13.408Z,5.44
2023-02-04T01:57:42.043Z,5.60
2023-02-04T02:00:16.481Z,5.66
2023-02-04T02:02:50.774Z,5.62
2023-02-04T02:05:38.111Z,5.61
2023-02-04T02:08:07.229Z,5.92
2023-02-04T02:10:36.086Z,5.50
2023-02-04T02:13:06.002Z,6.22
2023-02-04T02:15:34.354Z,5.94
2023-02-04T02:18:02.632Z,5.74
2023-02-04T02:20:30.926Z,5.64
2023-02-04T02:23:23.071Z,5.85
2023-02-04T02:25:51.673Z,5.82
2023-02-04T02:28:21.986Z,5.63
2023-02-04T02:30:50.253Z,5.93
2023-02-04T02:33:20.778Z,5.92
2023-02-04T02:35:49.163Z,6.06
2023-02-04T02:38:18.887Z,5.84
2023-02-04T02:40:47.870Z,5.97
2023-02-04T02:43:18.941Z,5.89
2023-02-04T02:45:47.842Z,5.96
2023-02-04T02:48:15.910Z,5.58
2023-02-04T02:50:44.356Z,5.65
2023-02-04T02:53:14.250Z,5.85
2023-02-04T02:55:43.191Z,6.03
2023-02-04T02:58:34.738Z,5.81
2023-02-04T03:01:05.696Z,5.84
2023-02-04T03:03:40.140Z,5.84
2023-02-04T03:06:12.806Z,5.58
2023-02-04T03:08:41.155Z,5.85
2023-02-04T03:11:09.623Z,5.82
2023-02-04T03:13:37.869Z,5.67
2023-02-04T03:16:06.721Z,6.05
2023-02-04T03:18:36.166Z,5.88
2023-02-04T03:21:05.113Z,5.71
2023-02-04T03:23:36.957Z,5.83
2023-02-04T03:26:05.726Z,5.53
2023-02-04T03:28:34.376Z,5.39
2023-02-04T03:31:03.293Z,5.35
2023-02-04T03:33:31.957Z,5.61
2023-02-04T03:35:59.806Z,5.79
2023-02-04T03:38:28.197Z,5.68
2023-02-04T03:40:56.512Z,5.44
2023-02-04T03:43:24.298Z,5.50
2023-02-04T03:45:52.288Z,5.41
2023-02-04T03:48:20.500Z,5.55
2023-02-04T03:50:48.317Z,5.40
2023-02-04T03:53:16.142Z,5.68
2023-02-04T03:55:44.372Z,5.45
2023-02-04T03:58:12.223Z,5.37
2023-02-04T04:00:40.102Z,5.43
2023-02-04T04:03:08.417Z,5.32
2023-02-04T04:05:36.361Z,4.95
2023-02-04T04:08:04.282Z,5.34
2023-02-04T04:10:32.827Z,5.49
2023-02-04T04:13:00.872Z,5.55
2023-02-04T04:15:28.733Z,5.36
2023-02-04T04:17:56.928Z,5.62
2023-02-04T04:20:29.368Z,5.60
2023-02-04T04:22:57.715Z,5.57
2023-02-04T04:25:25.608Z,5.40
2023-02-04T04:27:53.590Z,5.48
2023-02-04T04:30:21.977Z,5.44
2023-02-04T04:32:49.829Z,5.59
2023-02-04T04:35:17.698Z,5.29
2023-02-04T04:37:45.933Z,5.62
2023-02-04T04:40:13.922Z,5.93
2023-02-04T04:42:41.899Z,5.92
2023-02-04T04:45:11.264Z,5.97
2023-02-04T04:47:39.092Z,6.02
2023-02-04T04:50:07.509Z,6.16
2023-02-04T04:52:35.709Z,5.26
2023-02-04T04:55:04.196Z,5.33
2023-02-04T04:57:32.155Z,5.45
2023-02-04T05:00:00.416Z,5.83
2023-02-04T05:02:28.253Z,5.51
2023-02-04T05:04:56.141Z,5.14
2023-02-04T05:07:24.832Z,5.19
2023-02-04T05:09:52.701Z,5.40
2023-02-04T05:12:20.662Z,5.20
2023-02-04T05:14:48.964Z,5.15
2023-02-04T05:17:16.839Z,5.43
2023-02-04T05:19:44.854Z,5.40
2023-02-04T05:22:13.534Z,5.15
2023-02-04T05:24:42.506Z,5.07
2023-02-04T05:27:10.364Z,4.82
2023-02-04T05:29:38.660Z,5.04
2023-02-04T05:32:06.501Z,5.34
2023-02-04T05:34:34.418Z,5.10
2023-02-04T05:37:02.546Z,5.36
2023-02-04T05:39:30.386Z,5.02
2023-02-04T05:41:58.277Z,5.18
2023-02-04T05:44:27.541Z,5.39
2023-02-04T05:46:55.571Z,4.99
2023-02-04T05:49:24.932Z,5.04
2023-02-04T05:51:53.201Z,4.84
2023-02-04T05:54:21.050Z,4.63
2023-02-04T05:56:48.940Z,4.65
2023-02-04T05:59:17.141Z,4.71
2023-02-04T06:01:45.022Z,4.69
2023-02-04T06:04:13.528Z,4.36
2023-02-04T10:03:29.588Z,7.33
2023-02-04T10:05:58.296Z,7.33
2023-02-04T10:08:30.585Z,5.66
2023-02-04T10:10:59.084Z,4.92
2023-02-04T10:13:35.215Z,4.27
2023-02-04T10:16:06.166Z,3.15
2023-02-04T10:18:34.610Z,3.27
2023-02-04T10:21:17.741Z,3.00
2023-02-04T10:23:49.286Z,2.89
2023-02-04T10:26:18.169Z,3.04
2023-02-04T10:28:46.496Z,2.74
2023-02-04T10:31:29.864Z,2.47
2023-02-04T10:34:21.037Z,2.30
2023-02-04T10:36:58.591Z,2.18
2023-02-04T10:39:30.742Z,2.57
2023-02-04T10:42:03.208Z,2.78
2023-02-04T10:44:34.020Z,2.95
2023-02-04T10:47:15.640Z,2.77
2023-02-04T10:50:19.760Z,3.23
2023-02-04T10:53:28.185Z,3.25
2023-02-04T10:55:57.078Z,3.63
2023-02-04T10:58:28.021Z,2.99
2023-02-04T11:00:56.796Z,3.41
2023-02-04T11:03:27.539Z,3.29
2023-02-04T11:05:58.485Z,2.91
2023-02-04T11:08:27.962Z,2.93
2023-02-04T11:11:01.303Z,3.11
2023-02-04T11:13:58.402Z,3.51
2023-02-04T11:16:30.545Z,3.03
2023-02-04T11:19:07.601Z,3.71
2023-02-04T11:21:35.323Z,3.90
2023-02-04T11:24:22.946Z,4.12
2023-02-04T11:26:53.288Z,4.68
2023-02-04T11:29:38.340Z,5.11
2023-02-04T11:32:36.380Z,4.75
2023-02-04T11:35:13.643Z,6.02
2023-02-04T11:37:43.713Z,6.25
2023-02-04T11:40:30.579Z,6.63
2023-02-04T11:43:14.155Z,5.78
2023-02-04T11:45:43.038Z,5.81
2023-02-04T11:48:21.288Z,5.90
2023-02-04T11:51:00.073Z,5.29
2023-02-04T11:53:32.413Z,5.91
2023-02-04T11:56:01.226Z,5.17
2023-02-04T11:58:31.300Z,6.17
2023-02-04T12:00:59.618Z,7.09
2023-02-04T12:03:30.823Z,6.75
2023-02-04T12:05:59.672Z,6.13
2023-02-04T12:08:32.547Z,6.33
2023-02-04T12:11:29.405Z,5.49
2023-02-04T12:13:59.816Z,5.65
2023-02-04T12:16:27.752Z,5.89
2023-02-04T12:18:55.803Z,5.43
2023-02-04T12:21:24.049Z,4.62
2023-02-04T12:23:51.945Z,4.65
2023-02-04T12:26:19.842Z,4.64
2023-02-04T12:28:48.031Z,5.16
2023-02-04T12:31:20.594Z,4.69
2023-02-04T12:33:54.607Z,4.73
2023-02-04T12:36:22.619Z,4.23
2023-02-04T12:38:50.905Z,3.30
2023-02-04T12:41:20.149Z,3.31
2023-02-04T12:43:50.771Z,3.66
2023-02-04T12:46:19.182Z,3.67
2023-02-04T12:48:47.796Z,3.96
2023-02-04T12:51:15.953Z,3.66
2023-02-04T12:53:44.434Z,3.73
2023-02-04T12:56:12.301Z,4.07
2023-02-04T12:58:40.190Z,4.04
2023-02-04T13:01:08.495Z,4.18
2023-02-04T13:03:36.531Z,3.42
2023-02-04T13:06:04.801Z,3.21
2023-02-04T13:08:33.241Z,3.44
2023-02-04T13:11:01.146Z,3.44
2023-02-04T13:13:29.298Z,3.18
2023-02-04T13:15:57.639Z,3.97
2023-02-04T13:18:25.478Z,3.63
2023-02-04T13:20:53.347Z,3.32
2023-02-04T13:23:21.636Z,2.98
2023-02-04T13:25:49.762Z,3.35
2023-02-04T13:28:18.294Z,3.38
2023-02-04T13:30:46.588Z,3.26
2023-02-04T13:33:14.564Z,3.75
2023-02-04T13:35:42.565Z,3.03
2023-02-04T13:38:10.984Z,2.93
2023-02-04T13:40:39.528Z,3.06
2023-02-04T13:43:07.433Z,3.29
2023-02-04T13:45:37.113Z,3.21
2023-02-04T13:48:05.134Z,3.65
2023-02-04T13:50:33.381Z,3.21
2023-02-04T13:53:01.804Z,2.98
2023-02-04T13:55:29.753Z,2.80
2023-02-04T13:57:57.772Z,2.71
2023-02-04T14:00:26.066Z,2.64
2023-02-04T14:02:54.469Z,2.72
2023-02-04T14:05:22.562Z,2.44
2023-02-04T14:07:50.540Z,2.53
2023-02-04T14:10:19.449Z,2.63
2023-02-04T14:12:47.848Z,2.97
2023-02-04T14:15:16.284Z,2.70
2023-02-04T14:17:44.600Z,2.51
2023-02-04T14:20:12.799Z,2.13
2023-02-04T14:22:40.980Z,1.92
2023-02-04T14:25:10.463Z,2.07
2023-02-04T14:27:42.310Z,1.69
2023-02-04T14:30:17.192Z,1.44
2023-02-04T14:32:45.113Z,1.84
2023-02-04T14:35:13.459Z,1.77
2023-02-04T14:37:41.357Z,1.69
2023-02-04T14:40:10.974Z,1.56
2023-02-04T14:42:39.742Z,1.31
2023-02-04T14:45:09.051Z,1.66
2023-02-04T14:47:37.917Z,1.31
2023-02-04T14:50:08.920Z,1.20
2023-02-04T14:52:36.789Z,1.36
2023-02-04T14:55:04.814Z,1.70
2023-02-04T14:57:33.009Z,1.52
2023-02-04T15:00:00.887Z,1.70
2023-02-04T15:02:29.017Z,1.29
2023-02-04T15:04:57.377Z,1.25
2023-02-04T15:07:28.382Z,1.16
2023-02-04T15:09:56.341Z,1.02
2023-02-04T15:12:24.741Z,1.20
2023-02-04T15:14:52.911Z,0.83
2023-02-04T15:17:20.926Z,1.16
2023-02-04T15:19:49.156Z,1.02
2023-02-04T15:22:17.220Z,0.59
2023-02-04T15:24:45.153Z,0.63
2023-02-04T15:27:13.425Z,0.49
2023-02-04T15:29:41.320Z,0.62
2023-02-04T15:32:19.402Z,0.91
2023-02-04T15:34:47.768Z,1.02
2023-02-04T15:37:16.308Z,1.16
2023-02-04T15:39:44.175Z,0.49
2023-02-04T15:42:12.454Z,0.46
2023-02-04T15:44:40.397Z,0.48
2023-02-04T15:47:08.255Z,-0.01
2023-02-04T15:49:36.600Z,0.30
2023-02-04T15:52:05.822Z,0.14
2023-02-04T15:54:39.202Z,0.50
2023-02-04T15:57:07.098Z,0.25
2023-02-04T15:59:34.941Z,0.36
2023-02-04T16:02:03.221Z,0.35
2023-02-04T16:04:31.442Z,0.23
2023-02-04T16:06:59.618Z,0.17
2023-02-04T16:09:27.650Z,0.48
2023-02-04T16:11:55.880Z,0.41
2023-02-04T16:14:23.878Z,0.20
2023-02-04T16:16:52.059Z,0.28
2023-02-04T16:19:20.386Z,0.12
2023-02-04T16:21:48.317Z,-0.35
2023-02-04T16:24:18.617Z,0.00
2023-02-04T16:26:47.343Z,-0.21
2023-02-04T16:29:15.352Z,0.31
2023-02-04T16:31:43.339Z,0.08
2023-02-04T16:34:11.678Z,-0.35
2023-02-04T16:36:39.770Z,-0.29
2023-02-04T16:39:07.727Z,-0.16
2023-02-04T16:41:36.098Z,-0.01
2023-02-04T16:44:04.029Z,0.03
2023-02-04T16:46:34.049Z,-0.02
2023-02-04T16:49:02.501Z,-0.07
2023-02-04T16:51:31.236Z,-0.11
2023-02-04T16:53:59.320Z,-0.17
2023-02-04T16:56:35.193Z,-0.43
2023-02-04T16:59:05.337Z,-0.37
2023-02-04T17:01:33.723Z,-0.37
2023-02-04T17:04:01.724Z,-0.44
2023-02-04T17:06:31.192Z,-0.43
2023-02-04T17:08:59.738Z,-0.29
2023-02-04T17:11:31.647Z,0.23
2023-02-04T17:14:10.982Z,-0.24
2023-02-04T17:16:39.245Z,0.18
2023-02-04T17:19:07.616Z,0.14
2023-02-04T17:21:35.936Z,0.07
2023-02-04T17:24:04.536Z,-0.04
2023-02-04T17:26:37.645Z,0.07
2023-02-04T17:29:11.723Z,0.25
2023-02-04T17:31:40.879Z,0.12
2023-02-04T17:34:09.223Z,0.12
2023-02-04T17:36:37.303Z,-0.02
2023-02-04T17:39:06.255Z,0.17
2023-02-04T17:41:34.489Z,0.13
2023-02-04T17:44:03.554Z,-0.01
2023-02-04T17:46:32.120Z,-0.15
2023-02-04T17:49:00.123Z,-0.18
2023-02-04T17:51:28.156Z,0.16
2023-02-04T17:53:56.452Z,0.05
2023-02-04T17:56:25.243Z,0.08
2023-02-04T17:58:56.195Z,0.09
2023-02-04T18:01:25.463Z,0.16
2023-02-04T18:03:54.609Z,-0.18
2023-02-04T18:06:27.355Z,0.03
2023-02-04T18:09:01.767Z,0.06
2023-02-04T18:11:33.148Z,0.01
2023-02-04T18:14:10.954Z,-0.12
2023-02-04T18:16:39.974Z,0.05
2023-02-04T18:19:27.800Z,-0.09
2023-02-04T18:21:55.874Z,0.16
2023-02-04T18:24:33.992Z,0.21
2023-02-04T18:27:13.409Z,0.22
2023-02-04T18:29:44.708Z,0.25
2023-02-04T18:32:15.792Z,0.05
2023-02-04T18:34:46.971Z,0.27
2023-02-04T18:37:36.390Z,0.10
2023-02-04T18:40:10.891Z,0.29
2023-02-04T18:42:42.102Z,0.20
2023-02-04T18:45:20.210Z,0.23
2023-02-04T18:47:49.292Z,0.51
2023-02-04T18:50:23.918Z,0.48
2023-02-04T18:52:52.518Z,0.01
2023-02-04T18:55:33.040Z,0.18
2023-02-04T18:58:19.257Z,0.36
2023-02-04T19:00:54.497Z,0.22
2023-02-04T19:03:32.662Z,0.08
2023-02-04T19:06:03.097Z,0.44
2023-02-04T19:08:45.019Z,0.24
2023-02-04T19:11:34.651Z,0.17
2023-02-04T19:14:12.162Z,-0.05
2023-02-04T19:16:42.467Z,-0.29
2023-02-04T19:19:37.378Z,-0.30
2023-02-04T19:22:22.901Z,-0.22
2023-02-04T19:25:00.102Z,-0.13
2023-02-04T19:27:35.067Z,-0.18
2023-02-04T19:30:27.573Z,-0.13
2023-02-04T19:32:58.426Z,-0.36
2023-02-04T19:35:30.608Z,-0.33
2023-02-04T19:38:28.582Z,-0.42
2023-02-04T19:40:56.914Z,-0.60
2023-02-04T19:43:43.218Z,-0.46
2023-02-04T19:46:24.248Z,-0.59
2023-02-04T19:48:52.828Z,-0.59
2023-02-04T19:51:25.907Z,-0.49
2023-02-04T19:54:20.286Z,-0.27
2023-02-04T19:56:48.099Z,-0.32
2023-02-04T19:59:30.533Z,-0.57
2023-02-04T20:02:07.706Z,-0.59
2023-02-04T20:04:42.769Z,-0.31
2023-02-04T20:07:25.273Z,-0.36
2023-02-04T20:10:29.560Z,-0.66
2023-02-04T20:13:10.359Z,-0.68
2023-02-04T20:15:38.900Z,-0.73
2023-02-04T20:18:20.106Z,-0.70
2023-02-04T20:20:48.521Z,-0.68
2023-02-04T20:23:22.178Z,-0.48
2023-02-04T20:25:50.693Z,-0.62
2023-02-04T20:28:49.039Z,-0.65
2023-02-04T20:31:29.294Z,-0.48
2023-02-04T20:33:59.554Z,-0.28
2023-02-04T20:36:41.126Z,-0.48
2023-02-04T20:39:09.046Z,-0.68
2023-02-04T20:41:38.229Z,-0.93
2023-02-04T20:44:17.041Z,-0.94
2023-02-04T20:46:45.366Z,-0.75
2023-02-04T20:49:23.001Z,-0.80
2023-02-04T20:51:54.266Z,-0.60
2023-02-04T20:54:22.084Z,-0.75
2023-02-04T20:56:49.973Z,-0.54
2023-02-04T20:59:27.049Z,-0.85
2023-02-04T21:01:56.247Z,-0.72
2023-02-04T21:04:38.922Z,-0.71
2023-02-04T21:07:14.422Z,-0.61
2023-02-04T21:09:42.710Z,-0.91
2023-02-04T21:12:10.848Z,-1.06
2023-02-04T21:14:38.848Z,-0.81
2023-02-04T21:17:07.690Z,-0.94
2023-02-04T21:19:35.704Z,-0.91
2023-02-04T21:22:03.606Z,-1.28
2023-02-04T21:24:32.106Z,-1.02
2023-02-04T21:26:59.978Z,-0.92
2023-02-04T21:29:27.853Z,-0.97
2023-02-04T21:31:56.124Z,-1.14
2023-02-04T21:34:24.158Z,-1.16
2023-02-04T21:36:52.128Z,-1.22
2023-02-04T21:39:20.998Z,-1.06
2023-02-04T21:42:08.919Z,-0.96
2023-02-04T21:44:38.344Z,-1.01
2023-02-04T21:47:06.321Z,-1.06
2023-02-04T21:49:34.276Z,-0.84
2023-02-04T21:52:02.482Z,-0.97
2023-02-04T21:54:30.372Z,-0.86
2023-02-04T21:57:02.174Z,-0.70
2023-02-04T21:59:31.035Z,-0.79
2023-02-04T22:01:59.102Z,-0.70
2023-02-04T22:04:27.435Z,-0.84
2023-02-04T22:06:56.181Z,-0.71
2023-02-04T22:09:24.464Z,-0.92
2023-02-04T22:11:52.790Z,-0.94
2023-02-04T22:14:39.346Z,-1.02
2023-02-04T22:17:07.696Z,-1.11
2023-02-04T22:19:35.612Z,-1.21
2023-02-04T22:22:03.588Z,-0.97
2023-02-04T22:24:31.921Z,-1.15
2023-02-04T22:26:59.807Z,-1.26
2023-02-04T22:29:30.196Z,-1.04
2023-02-04T22:31:58.451Z,-0.90
2023-02-04T22:34:26.972Z,-1.06
2023-02-04T22:36:55.711Z,-0.89
2023-02-04T22:39:24.200Z,-1.13
2023-02-04T22:41:52.992Z,-1.20
2023-02-04T22:44:20.931Z,-0.96
2023-02-04T22:46:49.427Z,-1.18
2023-02-04T22:49:17.272Z,-1.22
2023-02-04T22:51:45.158Z,-1.08
2023-02-04T22:54:13.374Z,-1.05
2023-02-04T22:56:41.177Z,-1.30
2023-02-04T22:59:09.072Z,-1.12
2023-02-04T23:01:37.371Z,-1.10
2023-02-04T23:04:05.337Z,-1.12
2023-02-04T23:06:33.684Z,-1.47
2023-02-04T23:09:01.977Z,-1.20
2023-02-04T23:11:29.844Z,-1.25
2023-02-04T23:13:57.686Z,-1.09
2023-02-04T23:16:26.198Z,-1.60
2023-02-04T23:18:54.402Z,-1.23
2023-02-04T23:21:23.099Z,-1.09
2023-02-04T23:23:51.746Z,-1.33
2023-02-04T23:26:20.018Z,-1.52
2023-02-04T23:28:47.862Z,-1.31
2023-02-04T23:31:16.192Z,-1.36
2023-02-04T23:33:44.030Z,-1.17
2023-02-04T23:36:12.170Z,-1.06
2023-02-04T23:38:40.367Z,-1.05
2023-02-04T23:41:08.256Z,-1.21
2023-02-04T23:43:36.222Z,-1.20
2023-02-04T23:46:04.714Z,-1.29
2023-02-04T23:48:32.656Z,-1.13
2023-02-04T23:51:00.509Z,-0.98
2023-02-04T23:53:28.741Z,-1.17
2023-02-04T23:55:56.653Z,-1.17
2023-02-04T23:58:24.482Z,-1.03
